createdAt,value
2022-12-11T00:01:56.707Z,99.90
2022-12-11T00:04:23.752Z,99.90
2022-12-11T00:06:50.604Z,99.90
2022-12-11T00:09:18.449Z,99.90
2022-12-11T00:11:45.670Z,99.90
2022-12-11T00:27:48.924Z,99.90
2022-12-11T00:30:15.571Z,99.90
2022-12-11T00:32:44.168Z,99.90
2022-12-11T00:35:19.527Z,99.90
2022-12-11T00:37:46.105Z,99.90
2022-12-11T00:40:12.757Z,99.90
2022-12-11T00:42:39.354Z,99.90
2022-12-11T00:45:06.356Z,99.90
2022-12-11T00:47:32.962Z,99.90
2022-12-11T00:52:47.753Z,99.90
2022-12-11T00:55:14.491Z,99.90
2022-12-11T00:57:41.146Z,99.90
2022-12-11T01:00:08.258Z,99.90
2022-12-11T01:02:35.045Z,99.90
2022-12-11T01:07:40.065Z,99.90
2022-12-11T01:10:24.966Z,99.90
2022-12-11T01:12:52.349Z,99.90
2022-12-11T01:15:20.540Z,99.90
2022-12-11T01:17:47.190Z,99.90
2022-12-11T01:20:13.896Z,99.90
2022-12-11T01:22:40.519Z,99.90
2022-12-11T01:25:07.814Z,99.90
2022-12-11T01:27:34.525Z,99.90
2022-12-11T01:30:01.195Z,99.90
2022-12-11T01:32:28.624Z,99.90
2022-12-11T01:37:35.408Z,99.90
2022-12-11T01:40:02.083Z,99.90
2022-12-11T01:42:29.640Z,99.90
2022-12-11T01:45:24.714Z,99.90
2022-12-11T01:47:57.213Z,99.90
2022-12-11T01:50:24.302Z,99.90
2022-12-11T02:00:53.502Z,99.90
2022-12-11T02:03:20.674Z,99.90
2022-12-11T02:05:47.353Z,99.90
2022-12-11T02:08:14.150Z,99.90
2022-12-11T02:31:30.853Z,99.90
2022-12-11T02:34:07.355Z,99.90
2022-12-11T02:36:38.238Z,99.90
2022-12-11T02:39:05.852Z,99.90
2022-12-11T02:41:33.007Z,99.90
2022-12-11T02:44:00.281Z,99.90
2022-12-11T02:46:30.003Z,99.90
2022-12-11T02:48:56.977Z,99.90
2022-12-11T02:51:28.171Z,99.90
2022-12-11T02:53:57.145Z,99.90
2022-12-11T02:56:30.913Z,99.90
2022-12-11T02:59:05.746Z,99.90
2022-12-11T03:04:25.066Z,99.90
2022-12-11T03:06:54.760Z,99.90
2022-12-11T03:09:22.599Z,99.90
2022-12-11T03:11:49.233Z,99.90
2022-12-11T03:14:15.832Z,99.90
2022-12-11T03:16:45.391Z,99.90
2022-12-11T03:22:10.761Z,99.90
2022-12-11T03:24:51.770Z,99.90
2022-12-11T03:27:28.325Z,99.90
2022-12-11T03:30:00.800Z,99.90
2022-12-11T03:32:31.635Z,99.90
2022-12-11T03:35:11.702Z,99.90
2022-12-11T03:37:41.412Z,99.90
2022-12-11T03:40:12.621Z,99.90
2022-12-11T03:42:40.198Z,99.90
2022-12-11T03:45:09.533Z,99.90
2022-12-11T03:47:37.851Z,99.90
2022-12-11T03:50:06.023Z,99.90
2022-12-11T03:55:07.281Z,99.90
2022-12-11T03:57:36.539Z,99.90
2022-12-11T04:00:08.117Z,99.90
2022-12-11T04:02:34.691Z,99.90
2022-12-11T04:05:01.422Z,99.90
2022-12-11T04:07:34.306Z,99.90
2022-12-11T04:10:00.915Z,99.90
2022-12-11T04:12:27.521Z,99.90
2022-12-11T04:15:03.414Z,99.90
2022-12-11T04:17:53.203Z,99.90
2022-12-11T04:20:39.209Z,99.90
2022-12-11T04:23:25.300Z,99.90
2022-12-11T04:25:51.991Z,99.90
2022-12-11T04:31:04.140Z,99.90
2022-12-11T04:33:31.043Z,99.90
2022-12-11T04:35:58.824Z,99.90
2022-12-11T04:38:25.547Z,99.90
2022-12-11T04:41:03.875Z,99.90
2022-12-11T04:43:30.834Z,99.90
2022-12-11T04:48:57.571Z,99.90
2022-12-11T04:51:24.708Z,99.90
2022-12-11T04:53:51.508Z,99.90
2022-12-11T04:56:18.147Z,99.90
2022-12-11T04:58:45.445Z,99.90
2022-12-11T05:03:52.461Z,99.90
2022-12-11T05:06:19.120Z,99.90
2022-12-11T05:08:45.863Z,99.90
2022-12-11T05:11:15.256Z,99.90
2022-12-11T05:13:42.551Z,99.90
2022-12-11T05:18:43.593Z,99.90
2022-12-11T05:21:13.393Z,99.90
2022-12-11T05:23:40.661Z,99.90
2022-12-11T05:26:11.551Z,99.90
2022-12-11T05:28:39.482Z,99.90
2022-12-11T05:41:51.580Z,99.90
2022-12-11T05:44:18.212Z,99.90
2022-12-11T05:46:45.007Z,99.90
2022-12-11T05:51:43.222Z,99.90
2022-12-11T05:54:10.627Z,99.90
2022-12-11T05:56:37.694Z,99.90
2022-12-11T05:59:05.861Z,99.90
2022-12-11T06:01:35.499Z,99.90
2022-12-11T06:06:38.133Z,99.90
2022-12-11T06:09:06.135Z,99.90
2022-12-11T06:11:34.101Z,99.90
2022-12-11T06:14:02.116Z,99.90
2022-12-11T06:16:28.941Z,99.90
2022-12-11T06:21:30.754Z,99.90
2022-12-11T06:24:00.072Z,99.90
2022-12-11T06:26:27.064Z,99.90
2022-12-11T06:28:53.872Z,99.90
2022-12-11T06:31:20.953Z,99.90
2022-12-11T06:36:26.536Z,99.90
2022-12-11T06:38:53.354Z,99.90
2022-12-11T06:41:20.082Z,99.90
2022-12-11T06:43:46.945Z,99.90
2022-12-11T06:46:15.958Z,99.90
2022-12-11T06:51:31.117Z,99.90
2022-12-11T06:53:57.783Z,99.90
2022-12-11T06:56:24.873Z,99.90
2022-12-11T06:58:51.991Z,99.90
2022-12-11T07:01:22.663Z,99.90
2022-12-11T07:03:56.103Z,99.90
2022-12-11T07:06:22.964Z,99.90
2022-12-11T07:08:49.680Z,99.90
2022-12-11T07:11:17.373Z,99.90
2022-12-11T07:13:44.361Z,99.90
2022-12-11T07:16:13.111Z,99.90
2022-12-11T07:26:40.855Z,99.90
2022-12-11T07:29:07.431Z,99.90
2022-12-11T07:31:34.370Z,99.90
2022-12-11T07:34:04.508Z,99.90
2022-12-11T07:44:46.160Z,99.90
2022-12-11T07:47:12.817Z,99.90
2022-12-11T07:49:39.481Z,99.90
2022-12-11T07:52:06.041Z,99.90
2022-12-11T07:57:14.458Z,99.90
2022-12-11T07:59:41.801Z,99.90
2022-12-11T08:02:10.848Z,99.90
2022-12-11T08:04:37.795Z,99.90
2022-12-11T08:07:04.442Z,99.90
2022-12-11T08:09:31.098Z,99.90
2022-12-11T08:11:57.675Z,99.90
2022-12-11T08:14:24.448Z,99.90
2022-12-11T08:16:51.062Z,99.90
2022-12-11T08:19:18.071Z,99.90
2022-12-11T08:21:45.059Z,99.90
2022-12-11T08:24:11.625Z,99.90
2022-12-11T08:26:38.449Z,99.90
2022-12-11T08:29:13.165Z,99.90
2022-12-11T08:31:41.274Z,99.90
2022-12-11T08:34:08.038Z,99.90
2022-12-11T08:36:34.638Z,99.90
2022-12-11T08:39:01.205Z,99.90
2022-12-11T08:41:30.139Z,99.90
2022-12-11T08:43:58.506Z,99.90
2022-12-11T08:46:29.460Z,99.90
2022-12-11T08:48:56.872Z,99.90
2022-12-11T08:51:27.250Z,99.90
2022-12-11T08:53:57.910Z,99.90
2022-12-11T08:56:24.777Z,99.90
2022-12-11T08:58:52.489Z,99.90
2022-12-11T09:01:24.487Z,99.90
2022-12-11T09:03:52.956Z,99.90
2022-12-11T09:08:55.995Z,99.90
2022-12-11T09:11:25.678Z,99.90
2022-12-11T09:13:52.880Z,99.90
2022-12-11T09:16:23.197Z,99.90
2022-12-11T09:18:51.354Z,99.90
2022-12-11T09:23:57.355Z,99.90
2022-12-11T09:26:24.233Z,99.90
2022-12-11T09:28:53.196Z,99.90
2022-12-11T09:31:30.644Z,99.90
2022-12-11T09:34:03.634Z,99.90
2022-12-11T09:36:30.920Z,99.90
2022-12-11T09:47:46.305Z,99.90
2022-12-11T09:50:18.369Z,99.90
2022-12-11T09:53:00.098Z,99.90
2022-12-11T09:55:37.448Z,99.90
2022-12-11T09:58:32.235Z,99.90
2022-12-11T10:01:18.917Z,99.90
2022-12-11T10:04:18.983Z,99.90
2022-12-11T10:07:05.364Z,99.90
2022-12-11T10:10:07.990Z,99.90
2022-12-11T10:13:04.410Z,99.90
2022-12-11T10:15:41.088Z,99.90
2022-12-11T10:18:10.913Z,99.90
2022-12-11T10:20:40.211Z,99.90
2022-12-11T10:23:09.344Z,99.90
2022-12-11T10:25:38.718Z,99.90
2022-12-11T10:28:19.726Z,99.90
2022-12-11T10:31:14.273Z,99.90
2022-12-11T10:34:04.335Z,99.90
2022-12-11T10:36:34.773Z,99.90
2022-12-11T10:41:40.062Z,99.90
2022-12-11T10:44:27.821Z,99.90
2022-12-11T10:47:13.837Z,99.90
2022-12-11T10:49:53.573Z,99.90
2022-12-11T10:52:23.399Z,99.90
2022-12-11T10:54:58.729Z,99.90
2022-12-11T10:57:34.869Z,99.90
2022-12-11T11:00:08.875Z,99.90
2022-12-11T11:02:37.457Z,99.90
2022-12-11T11:05:27.553Z,99.90
2022-12-11T11:08:20.376Z,99.90
2022-12-11T11:10:55.391Z,99.90
2022-12-11T11:13:23.960Z,99.90
2022-12-11T11:16:02.145Z,99.90
2022-12-11T11:18:29.983Z,99.90
2022-12-11T11:23:30.192Z,99.10
2022-12-11T11:25:59.769Z,99.90
2022-12-11T11:28:38.083Z,89.50
2022-12-11T11:31:14.376Z,98.30
2022-12-11T11:34:03.958Z,99.00
2022-12-11T11:36:33.918Z,97.30
2022-12-11T11:42:11.774Z,89.80
2022-12-11T11:50:51.058Z,99.90
2022-12-11T11:56:46.862Z,71.20
2022-12-11T11:59:15.815Z,16.80
2022-12-11T12:01:43.703Z,2.40
2022-12-11T12:04:11.435Z,1.00
2022-12-11T12:06:57.935Z,1.00
2022-12-11T12:09:51.612Z,1.00
2022-12-11T12:12:40.645Z,1.00
2022-12-11T12:15:21.925Z,12.20
2022-12-11T12:17:56.063Z,67.20
2022-12-11T12:20:44.798Z,76.70
2022-12-11T12:23:34.888Z,92.50
2022-12-11T12:26:11.696Z,99.90
2022-12-11T12:28:45.546Z,99.90
2022-12-11T12:31:45.109Z,99.90
2022-12-11T12:34:14.770Z,99.80
2022-12-11T12:36:53.563Z,99.90
2022-12-11T12:39:43.362Z,99.90
2022-12-11T12:42:31.953Z,99.90
2022-12-11T12:45:01.588Z,99.90
2022-12-11T12:47:30.764Z,99.90
2022-12-11T12:49:58.946Z,99.90
2022-12-11T12:52:28.140Z,99.90
2022-12-11T12:55:17.680Z,99.90
2022-12-11T12:57:48.529Z,96.10
2022-12-11T13:00:34.247Z,97.80
2022-12-11T13:03:15.032Z,98.00
2022-12-11T13:05:45.282Z,99.90
2022-12-11T13:08:13.035Z,92.00
2022-12-11T13:10:41.942Z,89.00
2022-12-11T13:13:36.177Z,79.60
2022-12-11T13:16:08.076Z,62.10
2022-12-11T13:18:37.650Z,60.20
2022-12-11T13:21:27.214Z,40.10
2022-12-11T13:23:54.170Z,27.60
2022-12-11T13:26:33.270Z,26.10
2022-12-11T13:28:59.841Z,9.00
2022-12-11T13:31:36.215Z,16.60
2022-12-11T13:34:16.617Z,1.00
2022-12-11T13:36:48.980Z,99.90
2022-12-11T13:39:24.916Z,1.00
2022-12-11T13:41:58.179Z,1.00
2022-12-11T13:47:02.838Z,43.80
2022-12-11T13:49:35.791Z,57.50
2022-12-11T13:52:03.236Z,52.50
2022-12-11T13:54:33.381Z,55.30
2022-12-11T13:57:13.500Z,56.40
2022-12-11T13:59:43.274Z,71.10
2022-12-11T14:10:54.202Z,87.50
2022-12-11T14:13:27.138Z,96.70
2022-12-11T14:15:54.798Z,98.90
2022-12-11T14:18:23.789Z,99.90
2022-12-11T14:20:55.720Z,99.90
2022-12-11T14:23:28.731Z,99.90
2022-12-11T14:28:44.269Z,99.90
2022-12-11T14:31:15.973Z,99.90
2022-12-11T14:33:51.052Z,99.90
2022-12-11T14:36:17.874Z,99.90
2022-12-11T14:38:49.889Z,99.90
2022-12-11T14:43:54.517Z,99.90
2022-12-11T14:46:47.416Z,99.90
2022-12-11T14:49:23.269Z,99.90
2022-12-11T14:51:50.927Z,99.90
2022-12-11T14:54:29.925Z,99.90
2022-12-11T14:56:57.211Z,99.90
2022-12-11T15:10:27.917Z,99.90
2022-12-11T15:12:54.912Z,99.90
2022-12-11T15:15:21.723Z,99.90
2022-12-11T15:17:52.829Z,99.90
2022-12-11T15:20:29.651Z,99.90
2022-12-11T15:25:39.400Z,99.90
2022-12-11T15:28:22.880Z,99.90
2022-12-11T15:30:57.981Z,99.90
2022-12-11T15:33:26.530Z,99.90
2022-12-11T15:36:00.924Z,99.90
2022-12-11T15:38:34.349Z,99.90
2022-12-11T15:41:09.579Z,99.90
2022-12-11T15:43:37.857Z,99.90
2022-12-11T15:46:05.669Z,99.90
2022-12-11T15:48:32.624Z,99.90
2022-12-11T15:50:59.389Z,99.90
2022-12-11T15:53:26.074Z,99.90
2022-12-11T15:55:58.929Z,99.90
2022-12-11T15:58:27.325Z,99.90
2022-12-11T16:00:54.780Z,99.90
2022-12-11T16:03:22.580Z,99.90
2022-12-11T16:05:52.923Z,99.90
2022-12-11T16:08:22.272Z,99.90
2022-12-11T16:13:32.606Z,99.90
2022-12-11T16:15:59.413Z,99.90
2022-12-11T16:18:26.550Z,99.90
2022-12-11T16:20:54.089Z,99.90
2022-12-11T16:23:21.111Z,99.90
2022-12-11T16:25:53.545Z,99.90
2022-12-11T16:28:21.101Z,99.90
2022-12-11T16:30:48.074Z,99.90
2022-12-11T16:33:14.984Z,99.90
2022-12-11T16:35:42.841Z,99.90
2022-12-11T16:38:10.510Z,99.90
2022-12-11T16:43:20.142Z,99.90
2022-12-11T16:45:46.854Z,99.90
2022-12-11T16:48:13.609Z,99.90
2022-12-11T16:50:40.412Z,99.90
2022-12-11T16:53:07.022Z,99.90
2022-12-11T17:01:14.467Z,99.90
2022-12-11T17:03:42.243Z,99.90
2022-12-11T17:06:10.892Z,99.90
2022-12-11T17:08:37.899Z,99.90
2022-12-11T17:11:07.078Z,99.90
2022-12-11T17:19:07.367Z,99.90
2022-12-11T17:21:34.099Z,99.90
2022-12-11T17:24:00.839Z,99.90
2022-12-11T17:26:28.568Z,99.90
2022-12-11T17:28:56.718Z,99.90
2022-12-11T17:39:29.893Z,99.90
2022-12-11T17:41:56.635Z,99.90
2022-12-11T17:44:26.618Z,99.90
2022-12-11T17:46:55.680Z,99.90
2022-12-11T17:52:10.402Z,99.90
2022-12-11T17:54:37.063Z,99.90
2022-12-11T17:57:03.972Z,99.90
2022-12-11T17:59:30.608Z,99.90
2022-12-11T18:01:57.643Z,99.90
2022-12-11T18:07:00.307Z,99.90
2022-12-11T18:09:28.019Z,99.90
2022-12-11T18:11:54.781Z,99.90
2022-12-11T18:14:21.605Z,99.90
2022-12-11T18:16:48.666Z,99.90
2022-12-11T18:21:54.797Z,99.90
2022-12-11T18:24:22.112Z,99.90
2022-12-11T18:26:49.158Z,99.90
2022-12-11T18:29:15.984Z,99.90
2022-12-11T18:31:43.239Z,99.90
2022-12-11T18:36:53.542Z,99.90
2022-12-11T18:39:20.435Z,99.90
2022-12-11T18:41:58.402Z,99.90
2022-12-11T18:44:34.090Z,99.90
2022-12-11T18:47:00.866Z,99.90
2022-12-11T18:49:27.674Z,99.90
2022-12-11T18:51:54.550Z,99.90
2022-12-11T19:02:33.471Z,99.90
2022-12-11T19:05:00.176Z,99.90
2022-12-11T19:07:27.608Z,99.90
2022-12-11T19:09:54.272Z,99.90
2022-12-11T19:12:21.279Z,99.90
2022-12-11T19:14:48.844Z,99.90
2022-12-11T19:17:15.513Z,99.90
2022-12-11T19:19:47.569Z,99.90
2022-12-11T19:22:17.382Z,99.90
2022-12-11T19:24:44.140Z,99.90
2022-12-11T19:27:13.644Z,99.90
2022-12-11T19:29:41.214Z,99.90
2022-12-11T19:32:08.287Z,99.90
2022-12-11T19:34:35.020Z,99.90
2022-12-11T19:39:42.191Z,99.90
2022-12-11T19:42:09.251Z,99.90
2022-12-11T19:44:36.036Z,99.90
2022-12-11T19:47:02.821Z,99.90
2022-12-11T19:49:30.253Z,99.90
2022-12-11T19:54:32.858Z,99.90
2022-12-11T19:56:59.733Z,99.90
2022-12-11T19:59:26.441Z,99.90
2022-12-11T20:01:53.200Z,99.90
2022-12-11T20:04:20.176Z,99.90
2022-12-11T20:09:30.746Z,99.90
2022-12-11T20:11:57.609Z,99.90
2022-12-11T20:14:25.950Z,99.90
2022-12-11T20:20:40.801Z,99.90
2022-12-11T20:23:08.406Z,99.90
2022-12-11T20:25:36.419Z,99.90
2022-12-11T20:28:03.167Z,99.90
2022-12-11T20:30:29.809Z,99.90
2022-12-11T20:32:56.499Z,99.90
2022-12-11T20:35:26.382Z,99.90
2022-12-11T20:37:53.635Z,99.90
2022-12-11T20:40:20.437Z,99.90
2022-12-11T20:45:27.586Z,99.90
2022-12-11T20:47:54.242Z,99.90
2022-12-11T20:50:22.398Z,99.90
2022-12-11T20:52:49.249Z,99.90
2022-12-11T20:55:15.910Z,99.90
2022-12-11T21:00:23.743Z,99.90
2022-12-11T21:02:51.262Z,99.90
2022-12-11T21:05:18.021Z,99.90
2022-12-11T21:07:44.687Z,99.90
2022-12-11T21:10:13.072Z,99.90
2022-12-11T21:15:22.314Z,99.90
2022-12-11T21:17:48.999Z,99.90
2022-12-11T21:20:15.810Z,99.90
2022-12-11T21:22:42.455Z,99.90
2022-12-11T21:25:09.834Z,99.90
2022-12-11T21:30:16.626Z,99.90
2022-12-11T21:32:43.406Z,99.90
2022-12-11T21:35:11.245Z,99.90
2022-12-11T21:37:38.056Z,99.90
2022-12-11T21:40:05.389Z,99.90
2022-12-11T21:47:53.235Z,99.90
2022-12-11T21:50:20.041Z,99.90
2022-12-11T21:52:46.810Z,99.90
2022-12-11T21:55:13.829Z,99.90
2022-12-11T21:57:40.775Z,99.90
2022-12-11T22:00:09.421Z,99.90
2022-12-11T22:02:40.993Z,99.90
2022-12-11T22:05:08.277Z,99.90
2022-12-11T22:07:34.922Z,99.90
2022-12-11T22:10:01.763Z,99.90
2022-12-11T22:12:28.883Z,99.90
2022-12-11T22:14:55.645Z,99.90
2022-12-11T22:17:22.446Z,99.90
2022-12-11T22:19:51.830Z,99.90
2022-12-11T22:22:19.196Z,99.90
2022-12-11T22:24:46.096Z,99.90
2022-12-11T22:27:12.760Z,99.90
2022-12-11T22:29:39.368Z,99.90
2022-12-11T22:32:06.085Z,99.90
2022-12-11T22:34:32.754Z,99.90
2022-12-11T22:36:59.421Z,99.90
2022-12-11T22:41:56.479Z,99.90
2022-12-11T22:44:23.158Z,99.90
2022-12-11T22:46:50.759Z,99.90
2022-12-11T22:49:19.067Z,99.90
2022-12-11T22:51:45.932Z,99.90
2022-12-11T22:56:54.323Z,99.90
2022-12-11T22:59:21.061Z,99.90
2022-12-11T23:01:47.877Z,99.90
2022-12-11T23:04:14.588Z,99.90
2022-12-11T23:06:41.353Z,99.90
2022-12-11T23:11:50.731Z,99.90
2022-12-11T23:14:18.447Z,99.90
2022-12-11T23:16:45.309Z,99.90
2022-12-11T23:19:12.542Z,99.90
2022-12-11T23:21:39.322Z,99.90
2022-12-11T23:32:17.435Z,99.90
2022-12-11T23:34:44.082Z,99.90
2022-12-11T23:37:10.785Z,99.90
2022-12-11T23:39:37.471Z,99.90
2022-12-11T23:44:49.001Z,99.90
2022-12-11T23:47:15.732Z,99.90
2022-12-11T23:49:42.483Z,99.90
2022-12-11T23:52:11.601Z,99.90
2022-12-11T23:54:38.725Z,99.90
2022-12-11T23:59:45.793Z,99.90
